Time;durP1;ratioP1;P1;durP2;ratioP2;P2;SDS_P1;SDS_P2;PMS_P1;PMS_P2;Temp;Humidity;BMP_temperature;BMP_pressure;BME280_temperature;BME280_humidity;BME280_pressure;Samples;Min_cycle;Max_cycle;Signal;HPM_P1;HPM_P2
2021/07/18 00:00:34;;;;;;;10.68;5.63;;;;;;;19.56;61.23;92745.72;5080208;28;20020;-60
2021/07/18 00:03:00;;;;;;;13.13;5.70;;;;;;;19.35;62.22;92752.38;5080355;28;20102;-60
2021/07/18 00:05:25;;;;;;;6.03;5.15;;;;;;;19.44;61.17;92754.25;5081585;28;20024;-60
2021/07/18 00:07:51;;;;;;;6.28;5.07;;;;;;;19.52;60.63;92754.66;5077439;28;20107;-60
2021/07/18 00:10:16;;;;;;;6.60;6.00;;;;;;;19.46;60.21;92750.81;5072821;28;20017;-60
2021/07/18 00:12:42;;;;;;;6.30;5.80;;;;;;;19.44;60.64;92745.84;5072994;28;20028;-59
2021/07/18 00:15:09;;;;;;;6.40;5.80;;;;;;;19.28;61.04;92739.41;5071655;28;20079;-59
2021/07/18 00:17:39;;;;;;;8.13;5.55;;;;;;;19.28;61.09;92745.00;5071944;28;20033;-61
2021/07/18 00:20:07;;;;;;;7.03;6.00;;;;;;;19.31;61.34;92743.75;5071859;28;20085;-61
2021/07/18 00:22:33;;;;;;;9.45;5.85;;;;;;;19.29;61.64;92737.34;5071520;28;20036;-61
2021/07/18 00:24:59;;;;;;;8.55;5.82;;;;;;;19.21;61.83;92736.94;5087128;28;20024;-62
2021/07/18 00:27:24;;;;;;;11.70;5.70;;;;;;;19.08;61.54;92743.25;5091688;28;20047;-60
2021/07/18 00:29:50;;;;;;;9.25;6.53;;;;;;;19.05;61.61;92738.88;5091507;28;20028;-65
2021/07/18 00:32:15;;;;;;;5.40;4.93;;;;;;;18.65;60.88;92671.13;5072746;28;20024;-65
2021/07/18 00:34:41;;;;;;;6.45;5.82;;;;;;;19.02;61.28;92723.34;5071580;28;20052;-64
2021/07/18 00:37:06;;;;;;;6.47;5.75;;;;;;;18.86;61.83;92728.84;5071528;28;20482;-64
2021/07/18 00:39:32;;;;;;;9.57;6.03;;;;;;;18.88;61.95;92735.25;5071603;28;20414;-64
2021/07/18 00:41:57;;;;;;;6.30;5.70;;;;;;;18.80;61.66;92728.50;5070764;28;20505;-64
2021/07/18 00:44:23;;;;;;;6.80;5.45;;;;;;;18.62;61.70;92719.19;5070421;28;20053;-64
2021/07/18 00:46:48;;;;;;;7.75;5.70;;;;;;;18.62;62.01;92725.50;5071016;28;20033;-63
2021/07/18 00:49:14;;;;;;;7.53;5.80;;;;;;;18.62;62.11;92724.78;5070558;28;20035;-61
2021/07/18 00:51:40;;;;;;;7.70;5.18;;;;;;;18.51;63.13;92725.59;5070611;28;20024;-62
2021/07/18 00:54:05;;;;;;;8.88;5.80;;;;;;;18.20;62.97;92681.28;5070363;28;20029;-60
2021/07/18 00:56:31;;;;;;;6.25;5.50;;;;;;;18.55;63.08;92720.19;5070502;28;20028;-61
2021/07/18 00:58:58;;;;;;;7.78;5.75;;;;;;;18.54;63.24;92719.47;5069263;28;20070;-59
2021/07/18 01:01:24;;;;;;;7.10;6.10;;;;;;;18.30;63.71;92717.44;5069445;28;20075;-60
2021/07/18 01:03:50;;;;;;;6.20;5.50;;;;;;;18.31;63.72;92711.22;5069125;28;20025;-60
2021/07/18 01:06:15;;;;;;;7.90;6.10;;;;;;;18.39;63.53;92714.44;5070725;28;20036;-61
2021/07/18 01:08:41;;;;;;;7.82;6.10;;;;;;;18.24;63.58;92687.09;5070903;28;20102;-61
2021/07/18 01:11:06;;;;;;;9.52;5.95;;;;;;;18.21;64.14;92699.50;5070899;28;20028;-65
2021/07/18 01:13:32;;;;;;;13.95;6.93;;;;;;;18.23;64.40;92708.00;5070728;28;20488;-65
2021/07/18 01:15:57;;;;;;;8.23;6.40;;;;;;;18.31;64.10;92704.91;5070797;28;20035;-66
2021/07/18 01:18:23;;;;;;;6.32;5.68;;;;;;;18.31;63.97;92702.84;5069604;28;20472;-66
2021/07/18 01:20:48;;;;;;;7.15;6.28;;;;;;;18.30;63.98;92712.56;5082527;28;20089;-67
2021/07/18 01:23:14;;;;;;;10.25;5.95;;;;;;;18.15;64.38;92708.28;5091087;28;20032;-67
2021/07/18 01:25:40;;;;;;;7.47;6.28;;;;;;;18.18;64.56;92695.88;5089470;28;20398;-67
2021/07/18 01:28:09;;;;;;;7.68;6.38;;;;;;;18.20;64.41;92700.84;5090945;28;20032;-66
2021/07/18 01:30:36;;;;;;;8.60;6.65;;;;;;;18.14;64.66;92700.53;5085643;28;20033;-66
2021/07/18 01:33:02;;;;;;;7.75;6.63;;;;;;;18.11;64.94;92704.53;5070249;28;20067;-63
2021/07/18 01:35:28;;;;;;;7.05;5.78;;;;;;;18.13;64.80;92699.78;5070594;28;20104;-62
2021/07/18 01:37:57;;;;;;;7.50;6.30;;;;;;;18.14;65.03;92709.63;5070457;28;20020;-65
2021/07/18 01:40:22;;;;;;;;;;;;;;;18.09;64.42;92712.81;5070641;28;20085;-65
2021/07/18 01:42:47;;;;;;;11.10;6.25;;;;;;;18.00;64.06;92714.44;5077662;28;19954;-64
2021/07/18 01:45:13;;;;;;;7.03;6.32;;;;;;;17.96;64.46;92705.84;5090085;28;20133;-64
2021/07/18 01:47:40;;;;;;;7.47;6.07;;;;;;;17.94;64.23;92700.16;5090271;28;20027;-64
2021/07/18 01:50:07;;;;;;;6.50;5.53;;;;;;;17.93;64.75;92697.97;5090107;28;20040;-64
2021/07/18 01:52:33;;;;;;;6.90;5.90;;;;;;;17.96;64.49;92703.03;5090373;28;20032;-64
2021/07/18 01:54:58;;;;;;;6.47;5.82;;;;;;;17.92;64.38;92697.25;5090322;28;20116;-65
2021/07/18 01:57:24;;;;;;;8.77;6.18;;;;;;;17.87;64.17;92703.94;5090204;28;20110;-62
2021/07/18 01:59:49;;;;;;;9.98;6.03;;;;;;;17.73;64.35;92692.00;5090059;28;20069;-62
2021/07/18 02:02:16;;;;;;;7.90;6.32;;;;;;;17.69;63.74;92697.38;5090182;28;20060;-62
2021/07/18 02:04:41;;;;;;;9.38;5.75;;;;;;;17.63;63.90;92701.88;5090220;28;20024;-62
2021/07/18 02:07:07;;;;;;;7.00;5.75;;;;;;;17.72;63.89;92701.69;5090141;28;20035;-62
2021/07/18 02:09:36;;;;;;;9.57;5.82;;;;;;;17.70;63.44;92698.06;5089500;28;20634;-62
2021/07/18 02:12:03;;;;;;;9.88;5.70;;;;;;;17.57;64.05;92705.03;5090044;28;20043;-64
2021/07/18 02:14:31;;;;;;;7.07;6.38;;;;;;;17.62;64.34;92703.22;5089969;28;20024;-65
2021/07/18 02:16:56;;;;;;;7.25;6.05;;;;;;;17.57;64.75;92707.84;5078532;28;20040;-65
2021/07/18 02:19:22;;;;;;;7.35;6.60;;;;;;;17.43;65.34;92702.16;5069886;28;20406;-64
2021/07/18 02:21:47;;;;;;;17.00;6.68;;;;;;;17.42;64.91;92709.06;5069405;28;20520;-63
2021/07/18 02:24:13;;;;;;;8.18;6.03;;;;;;;17.29;65.13;92714.56;5068553;28;20017;-62
2021/07/18 02:26:38;;;;;;;6.20;5.60;;;;;;;17.34;65.00;92717.00;5069389;28;20031;-61
2021/07/18 02:29:04;;;;;;;7.00;4.80;;;;;;;17.38;63.92;92710.91;5069220;28;20029;-60
2021/07/18 02:31:29;;;;;;;5.90;5.40;;;;;;;17.20;64.46;92716.16;5069309;28;20059;-60
2021/07/18 02:33:55;;;;;;;7.28;6.43;;;;;;;17.25;65.08;92722.72;5069442;28;20135;-60
2021/07/18 02:36:20;;;;;;;12.43;7.07;;;;;;;17.08;66.18;92721.06;5069366;28;20032;-60
2021/07/18 02:38:46;;;;;;;11.80;6.93;;;;;;;17.05;65.98;92696.44;5069223;28;20028;-60
2021/07/18 02:41:12;;;;;;;9.80;5.95;;;;;;;17.24;65.40;92721.25;5069648;28;20033;-60
2021/07/18 02:43:39;;;;;;;6.10;5.50;;;;;;;17.29;65.13;92722.94;5083873;28;20425;-64
2021/07/18 02:46:06;;;;;;;6.47;5.75;;;;;;;17.20;64.64;92724.53;5089434;28;20444;-65
2021/07/18 02:48:34;;;;;;;6.35;5.80;;;;;;;17.25;64.56;92725.50;5089416;28;20107;-65
2021/07/18 02:50:59;;;;;;;6.55;5.95;;;;;;;17.27;64.87;92725.63;5089426;28;20489;-65
2021/07/18 02:53:25;;;;;;;10.18;6.18;;;;;;;17.03;65.60;92733.31;5089255;28;20085;-65
2021/07/18 02:55:50;;;;;;;8.25;5.78;;;;;;;16.85;65.61;92732.22;5089320;28;20089;-65
2021/07/18 02:58:16;;;;;;;7.82;6.03;;;;;;;16.83;65.30;92728.59;5089254;28;20080;-62
2021/07/18 03:00:41;;;;;;;7.95;6.15;;;;;;;17.01;65.00;92730.41;5089525;28;20087;-61
2021/07/18 03:03:07;;;;;;;7.10;6.43;;;;;;;17.02;64.50;92736.72;5089556;28;20032;-65
2021/07/18 03:05:33;;;;;;;12.73;6.30;;;;;;;17.02;64.39;92733.91;5089246;28;20075;-63
2021/07/18 03:07:59;;;;;;;7.50;5.90;;;;;;;17.04;64.53;92731.97;5089253;28;20058;-60
2021/07/18 03:10:24;;;;;;;6.30;5.70;;;;;;;17.04;64.56;92734.03;5089556;28;20064;-61
2021/07/18 03:12:50;;;;;;;7.97;5.90;;;;;;;16.95;65.11;92730.03;5081202;28;20719;-63
2021/07/18 03:15:16;;;;;;;7.25;5.57;;;;;;;17.04;64.90;92737.56;5068974;28;20489;-62
2021/07/18 03:17:42;;;;;;;6.57;6.00;;;;;;;17.01;65.01;92743.59;5069271;28;20044;-60
2021/07/18 03:20:11;;;;;;;6.50;5.95;;;;;;;16.90;65.15;92733.19;5069129;28;20032;-60
2021/07/18 03:22:36;;;;;;;6.53;5.88;;;;;;;16.97;65.34;92743.38;5069433;28;20115;-60
2021/07/18 03:25:03;;;;;;;7.07;6.28;;;;;;;16.84;65.71;92747.50;5069085;28;20634;-61
2021/07/18 03:27:28;;;;;;;8.70;6.57;;;;;;;16.89;65.65;92746.41;5069323;28;20409;-63
2021/07/18 03:29:54;;;;;;;13.27;6.72;;;;;;;16.89;65.75;92751.97;5069272;28;20017;-62
2021/07/18 03:32:19;;;;;;;8.70;6.28;;;;;;;16.91;65.90;92752.13;5068794;28;20074;-63
2021/07/18 03:34:45;;;;;;;9.02;6.07;;;;;;;16.80;66.53;92747.28;5068673;28;20032;-64
2021/07/18 03:37:10;;;;;;;8.23;5.82;;;;;;;16.86;66.26;92746.91;5069102;28;20024;-65
2021/07/18 03:39:35;;;;;;;13.00;6.55;;;;;;;16.67;66.69;92733.94;5068721;28;20028;-65
2021/07/18 03:42:01;;;;;;;10.77;6.10;;;;;;;16.74;66.05;92752.47;5070649;28;20051;-65
2021/07/18 03:44:26;;;;;;;6.50;6.00;;;;;;;16.74;65.76;92755.25;5071999;28;20094;-64
2021/07/18 03:46:52;;;;;;;7.10;6.40;;;;;;;16.84;65.17;92755.13;5072554;28;20040;-64
2021/07/18 03:49:17;;;;;;;6.45;5.85;;;;;;;16.74;65.58;92760.13;5072307;28;20032;-64
2021/07/18 03:51:43;;;;;;;6.97;6.25;;;;;;;16.76;65.31;92757.44;5072414;28;20404;-64
2021/07/18 03:54:08;;;;;;;8.75;6.15;;;;;;;16.71;66.02;92758.53;5072054;28;20067;-63
2021/07/18 03:56:34;;;;;;;7.38;6.63;;;;;;;16.79;65.87;92762.53;5072064;28;20032;-65
2021/07/18 03:58:59;;;;;;;8.23;6.43;;;;;;;16.78;66.20;92763.16;5072000;28;20024;-64
2021/07/18 04:01:25;;;;;;;6.97;6.38;;;;;;;16.88;66.26;92763.75;5071046;28;20039;-64
2021/07/18 04:03:50;;;;;;;10.15;6.90;;;;;;;16.88;66.78;92758.16;5071823;28;20024;-65
2021/07/18 04:06:16;;;;;;;8.65;6.50;;;;;;;16.88;66.86;92761.69;5071899;28;20036;-64
2021/07/18 04:08:42;;;;;;;7.80;6.82;;;;;;;16.92;66.91;92758.41;5076897;28;20112;-65
2021/07/18 04:11:08;;;;;;;8.90;6.38;;;;;;;16.74;67.10;92741.31;5092055;28;20032;-65
2021/07/18 04:13:34;;;;;;;6.78;6.18;;;;;;;16.79;67.41;92753.44;5091944;28;20032;-65
2021/07/18 04:15:59;;;;;;;8.48;6.55;;;;;;;16.86;67.53;92758.03;5091885;28;20115;-65
2021/07/18 04:18:25;;;;;;;7.32;6.65;;;;;;;17.00;67.12;92761.69;5091944;28;20028;-64
2021/07/18 04:20:50;;;;;;;8.05;6.75;;;;;;;16.99;67.44;92763.00;5092200;28;20031;-64
2021/07/18 04:23:16;;;;;;;7.53;6.78;;;;;;;17.20;67.19;92768.44;5092128;28;20518;-65
2021/07/18 04:25:43;;;;;;;12.82;7.63;;;;;;;17.27;67.21;92773.03;5092099;28;20032;-65
2021/07/18 04:28:09;;;;;;;10.68;7.35;;;;;;;17.33;66.93;92770.59;5091987;28;20477;-65
2021/07/18 04:30:35;;;;;;;7.95;7.10;;;;;;;17.29;67.25;92773.91;5086837;28;20032;-61
2021/07/18 04:33:00;;;;;;;10.10;7.35;;;;;;;17.41;66.96;92776.66;5071671;28;20043;-60
2021/07/18 04:35:26;;;;;;;7.93;7.10;;;;;;;17.49;66.92;92782.72;5071473;28;20024;-60
2021/07/18 04:37:51;;;;;;;9.85;6.78;;;;;;;17.58;66.84;92789.53;5071668;28;20033;-65
2021/07/18 04:40:16;;;;;;;7.82;6.82;;;;;;;17.59;66.65;92777.72;5071562;28;20502;-64
2021/07/18 04:42:42;;;;;;;8.32;7.47;;;;;;;17.56;66.68;92770.59;5078658;28;20027;-62
2021/07/18 04:45:08;;;;;;;10.77;7.47;;;;;;;17.74;66.39;92791.16;5091275;28;20051;-59
2021/07/18 04:47:43;;;;;;;8.30;7.20;;;;;;;17.82;66.28;92783.22;5091791;28;20036;-60
2021/07/18 04:50:09;;;;;;;20.45;8.15;;;;;;;17.88;66.73;92785.66;5091550;28;20028;-60
2021/07/18 04:52:34;;;;;;;11.48;7.50;;;;;;;17.91;67.77;92782.34;5091669;28;20103;-63
2021/07/18 04:55:00;;;;;;;10.88;7.25;;;;;;;18.06;67.75;92787.41;5091649;28;20398;-63
2021/07/18 04:57:25;;;;;;;12.55;7.43;;;;;;;18.15;67.36;92782.97;5091510;28;20027;-63
2021/07/18 04:59:51;;;;;;;7.95;7.22;;;;;;;18.27;67.74;92783.66;5091609;28;20504;-62
2021/07/18 05:02:16;;;;;;;15.25;8.35;;;;;;;18.32;68.19;92782.53;5091073;28;20424;-60
2021/07/18 05:04:42;;;;;;;9.43;8.52;;;;;;;18.32;67.95;92787.41;5087887;28;20028;-58
2021/07/18 05:07:08;;;;;;;12.00;7.35;;;;;;;18.44;67.86;92786.03;5071151;28;20031;-60
2021/07/18 05:09:33;;;;;;;9.65;6.97;;;;;;;18.55;68.17;92792.88;5070776;28;20036;-60
2021/07/18 05:11:59;;;;;;;8.82;7.05;;;;;;;18.64;67.14;92791.97;5071097;28;20108;-61
2021/07/18 05:14:24;;;;;;;8.50;6.70;;;;;;;18.70;67.25;92787.44;5070729;28;20505;-64
2021/07/18 05:16:49;;;;;;;8.32;7.40;;;;;;;18.85;66.96;92792.44;5071117;28;20025;-62
2021/07/18 05:19:15;;;;;;;9.65;6.88;;;;;;;18.90;66.22;92794.13;5071155;28;20028;-61
2021/07/18 05:21:40;;;;;;;7.07;6.38;;;;;;;18.98;66.72;92788.22;5070733;28;20029;-61
2021/07/18 05:24:06;;;;;;;14.00;7.22;;;;;;;19.00;67.29;92785.50;5070654;28;20029;-61
2021/07/18 05:26:31;;;;;;;12.95;6.78;;;;;;;19.09;67.25;92786.66;5070703;28;20037;-61
2021/07/18 05:28:57;;;;;;;15.02;7.40;;;;;;;19.21;68.40;92801.31;5070422;28;20033;-61
2021/07/18 05:31:22;;;;;;;68.55;11.10;;;;;;;19.29;68.48;92794.03;5070251;28;20032;-61
2021/07/18 05:33:47;;;;;;;52.65;9.77;;;;;;;19.36;68.83;92797.91;5070457;28;20121;-62
2021/07/18 05:36:13;;;;;;;31.02;8.77;;;;;;;19.43;69.30;92803.19;5070581;28;20121;-61
2021/07/18 05:38:39;;;;;;;9.48;7.22;;;;;;;19.56;68.65;92799.66;5068924;28;20517;-61
2021/07/18 05:41:05;;;;;;;9.75;7.47;;;;;;;19.59;68.64;92795.59;5070027;28;20051;-61
2021/07/18 05:43:30;;;;;;;10.20;8.35;;;;;;;19.73;68.82;92795.56;5084942;28;20738;-62
2021/07/18 05:45:56;;;;;;;10.18;8.50;;;;;;;19.80;69.13;92782.59;5109321;28;20059;-63
2021/07/18 05:48:25;;;;;;;16.45;9.27;;;;;;;19.95;67.48;92793.16;5108971;28;20500;-63
2021/07/18 05:50:51;;;;;;;91.65;14.07;;;;;;;20.00;68.69;92784.31;5109262;28;20032;-60
2021/07/18 05:53:17;;;;;;;18.33;8.38;;;;;;;20.06;68.12;92786.69;5104459;28;20028;-60
2021/07/18 05:55:42;;;;;;;20.48;8.82;;;;;;;20.00;66.68;92761.19;5094166;28;20031;-61
2021/07/18 05:58:08;;;;;;;15.05;8.82;;;;;;;20.27;67.37;92789.16;5094379;28;20438;-61
2021/07/18 06:00:34;;;;;;;21.58;8.82;;;;;;;20.36;67.19;92786.09;5109431;28;20800;-61
2021/07/18 06:02:59;;;;;;;11.63;8.45;;;;;;;20.48;67.82;92780.34;5089044;28;20028;-60
2021/07/18 06:05:25;;;;;;;24.60;8.00;;;;;;;20.49;67.36;92775.47;5088404;28;20028;-63
2021/07/18 06:07:50;;;;;;;7.95;7.03;;;;;;;20.58;65.24;92778.00;5089071;28;20035;-62
2021/07/18 06:10:16;;;;;;;10.38;5.78;;;;;;;20.56;61.38;92775.09;5089409;28;20030;-61
2021/07/18 06:12:41;;;;;;;8.98;6.75;;;;;;;20.62;61.94;92775.38;5089357;28;20067;-63
2021/07/18 06:15:08;;;;;;;9.55;5.57;;;;;;;20.74;60.52;92767.53;5089486;28;20111;-61
2021/07/18 06:17:35;;;;;;;6.10;5.55;;;;;;;20.78;60.69;92770.50;5090065;28;20101;-62
2021/07/18 06:20:04;;;;;;;8.55;5.80;;;;;;;20.89;60.61;92764.00;5089957;28;20727;-64
2021/07/18 06:22:29;;;;;;;14.68;5.88;;;;;;;21.02;60.67;92768.06;5090022;28;20089;-62
2021/07/18 06:24:55;;;;;;;8.90;6.47;;;;;;;21.18;61.00;92759.69;5089957;28;20509;-62
2021/07/18 06:27:20;;;;;;;6.82;6.25;;;;;;;21.27;61.22;92758.69;5089721;28;20028;-64
2021/07/18 06:29:46;;;;;;;8.90;6.38;;;;;;;21.38;59.71;92754.91;5089548;28;20036;-59
2021/07/18 06:32:11;;;;;;;22.77;6.45;;;;;;;21.40;61.10;92755.72;5071316;28;20077;-60
2021/07/18 06:34:37;;;;;;;10.18;5.55;;;;;;;21.54;58.74;92750.00;5069542;28;20478;-61
2021/07/18 06:37:02;;;;;;;9.75;5.97;;;;;;;21.70;58.75;92739.47;5069333;28;20060;-61
2021/07/18 06:39:28;;;;;;;10.90;6.45;;;;;;;21.69;59.35;92752.03;5069576;28;20111;-61
2021/07/18 06:41:53;;;;;;;14.73;6.72;;;;;;;21.73;59.23;92750.13;5068988;28;20036;-61
2021/07/18 06:44:19;;;;;;;7.20;6.60;;;;;;;21.87;60.49;92735.97;5069151;28;20048;-62
2021/07/18 06:46:44;;;;;;;13.45;5.50;;;;;;;21.80;58.10;92740.59;5069222;28;20017;-61
2021/07/18 06:49:10;;;;;;;13.15;6.85;;;;;;;21.93;58.01;92739.03;5069318;28;20027;-61
2021/07/18 06:51:35;;;;;;;7.68;5.20;;;;;;;22.01;56.68;92736.53;5069502;28;20032;-61
2021/07/18 06:54:01;;;;;;;8.52;5.50;;;;;;;21.94;57.76;92717.97;5074359;28;20028;-61
2021/07/18 06:56:27;;;;;;;8.18;6.65;;;;;;;22.23;56.50;92742.31;5090824;28;20114;-61
2021/07/18 06:58:52;;;;;;;22.20;6.30;;;;;;;22.29;56.50;92736.94;5088916;28;20130;-62
2021/07/18 07:01:18;;;;;;;7.18;5.40;;;;;;;22.37;58.01;92731.66;5100562;28;20035;-61
2021/07/18 07:03:43;;;;;;;25.40;6.70;;;;;;;22.46;58.67;92728.50;5103687;28;20016;-62
2021/07/18 07:06:09;;;;;;;8.98;5.68;;;;;;;22.54;57.36;92714.72;5109509;28;20024;-61
2021/07/18 07:08:34;;;;;;;7.93;5.00;;;;;;;22.75;55.20;92723.97;5092542;28;20081;-66
2021/07/18 07:10:59;;;;;;;5.72;5.20;;;;;;;22.85;54.45;92719.44;5087572;28;20062;-64
2021/07/18 07:13:26;;;;;;;6.78;5.18;;;;;;;23.13;53.27;92722.59;5078495;28;20051;-64
2021/07/18 07:15:51;;;;;;;10.20;4.70;;;;;;;23.28;52.74;92724.53;5083147;28;20412;-63
2021/07/18 07:18:17;;;;;;;18.75;6.85;;;;;;;23.31;52.95;92723.22;5093479;28;20028;-62
2021/07/18 07:20:42;;;;;;;11.13;4.85;;;;;;;23.49;51.43;92711.91;5093669;28;20443;-62
2021/07/18 07:23:08;;;;;;;6.70;5.30;;;;;;;23.63;51.67;92715.91;5093625;28;20023;-63
2021/07/18 07:25:33;;;;;;;9.10;4.60;;;;;;;23.76;52.48;92711.41;5093328;28;20023;-61
2021/07/18 07:27:59;;;;;;;7.72;4.85;;;;;;;23.92;49.55;92711.94;5093222;28;20028;-60
2021/07/18 07:30:24;;;;;;;7.35;4.75;;;;;;;24.14;48.54;92709.88;5089597;28;20030;-63
2021/07/18 07:32:50;;;;;;;9.15;5.18;;;;;;;24.22;50.54;92695.31;5072938;28;20410;-61
2021/07/18 07:35:16;;;;;;;8.95;4.85;;;;;;;24.52;48.97;92704.72;5072846;28;20675;-62
2021/07/18 07:37:42;;;;;;;5.57;4.57;;;;;;;24.84;49.05;92700.06;5072620;28;20481;-63
2021/07/18 07:40:10;;;;;;;7.78;4.63;;;;;;;25.14;46.03;92700.97;5072566;28;20055;-60
2021/07/18 07:42:36;;;;;;;9.82;4.75;;;;;;;25.48;45.92;92707.59;5072365;28;20039;-62
2021/07/18 07:45:01;;;;;;;5.32;4.07;;;;;;;26.01;45.49;92692.69;5072380;28;20119;-60
2021/07/18 07:47:27;;;;;;;8.80;4.22;;;;;;;26.29;43.84;92707.53;5072711;28;20489;-60
2021/07/18 07:49:52;;;;;;;8.13;4.80;;;;;;;26.79;44.32;92702.34;5072739;28;20536;-63
2021/07/18 07:52:18;;;;;;;9.50;4.22;;;;;;;27.10;41.73;92700.16;5072603;28;20043;-61
2021/07/18 07:54:43;;;;;;;9.80;4.32;;;;;;;27.11;41.78;92698.78;5075996;28;20040;-61
2021/07/18 07:57:09;;;;;;;8.77;4.88;;;;;;;27.16;41.03;92700.31;5068781;28;20081;-62
2021/07/18 07:59:35;;;;;;;6.25;4.28;;;;;;;27.11;42.07;92698.78;5070819;28;20035;-62
2021/07/18 08:02:01;;;;;;;9.90;4.25;;;;;;;27.07;41.54;92701.53;5069779;28;20467;-59
2021/07/18 08:04:27;;;;;;;9.38;4.65;;;;;;;26.85;41.92;92696.84;5069856;28;20028;-61
2021/07/18 08:06:53;;;;;;;5.63;4.32;;;;;;;27.08;41.07;92709.34;5069444;28;20028;-61
2021/07/18 08:09:18;;;;;;;4.47;3.75;;;;;;;26.82;41.03;92703.84;5069816;28;20086;-62
2021/07/18 08:11:45;;;;;;;12.82;4.93;;;;;;;27.10;40.66;92700.16;5069768;28;20032;-64
2021/07/18 08:14:11;;;;;;;5.03;3.25;;;;;;;27.26;40.40;92689.19;5068149;28;20509;-64
2021/07/18 08:16:36;;;;;;;7.70;4.35;;;;;;;27.37;39.82;92694.41;5069480;28;20024;-62
2021/07/18 08:19:02;;;;;;;4.97;3.75;;;;;;;27.60;39.47;92692.72;5069417;28;20029;-63
2021/07/18 08:21:27;;;;;;;11.23;4.78;;;;;;;27.75;40.80;92691.56;5069604;28;20020;-63
2021/07/18 08:23:53;;;;;;;7.53;3.97;;;;;;;27.72;38.38;92687.28;5069500;28;20032;-59
2021/07/18 08:26:20;;;;;;;4.75;4.03;;;;;;;27.98;39.04;92675.69;5069616;28;20035;-61
2021/07/18 08:28:46;;;;;;;8.90;4.15;;;;;;;28.20;38.59;92679.63;5068983;28;20040;-60
2021/07/18 08:31:11;;;;;;;5.82;3.88;;;;;;;28.60;38.68;92678.84;5079210;28;20046;-61
2021/07/18 08:33:37;;;;;;;6.20;3.22;;;;;;;28.80;35.72;92677.03;5089217;28;20531;-65
2021/07/18 08:36:03;;;;;;;8.70;4.25;;;;;;;29.15;37.57;92672.53;5089589;28;20044;-61
2021/07/18 08:38:29;;;;;;;7.78;3.65;;;;;;;29.68;34.95;92668.91;5089912;28;20040;-60
2021/07/18 08:40:55;;;;;;;4.43;3.33;;;;;;;29.99;34.15;92662.09;5089556;28;20027;-65
2021/07/18 08:43:22;;;;;;;6.35;3.28;;;;;;;30.38;34.47;92665.31;5088853;28;20028;-60
2021/07/18 08:45:48;;;;;;;5.55;3.20;;;;;;;30.76;31.89;92656.31;5088265;28;20028;-67
2021/07/18 08:48:14;;;;;;;7.20;3.35;;;;;;;31.11;31.16;92663.69;5089429;28;20036;-65
2021/07/18 08:50:40;;;;;;;5.47;2.88;;;;;;;31.47;31.02;92652.44;5078551;28;20153;-62
2021/07/18 08:53:06;;;;;;;11.30;3.78;;;;;;;31.91;30.53;92669.00;5068870;28;20085;-66
2021/07/18 08:55:32;;;;;;;12.02;3.17;;;;;;;31.89;30.54;92661.16;5067756;28;20111;-66
2021/07/18 08:57:57;;;;;;;5.45;2.85;;;;;;;32.27;28.77;92665.53;5067744;28;20032;-63
2021/07/18 09:00:23;;;;;;;12.45;3.10;;;;;;;32.17;27.65;92634.78;5069188;28;20024;-65
2021/07/18 09:02:49;;;;;;;4.38;2.88;;;;;;;32.26;27.61;92655.50;5069337;28;20067;-60
2021/07/18 09:05:16;;;;;;;4.38;2.70;;;;;;;32.18;28.28;92650.50;5068762;28;20036;-66
2021/07/18 09:07:49;;;;;;;3.17;2.88;;;;;;;31.75;28.11;92654.69;5068413;28;20029;-64
2021/07/18 09:10:21;;;;;;;3.83;2.70;;;;;;;32.33;29.43;92649.09;5086834;28;20589;-67
2021/07/18 09:13:09;;;;;;;4.07;3.08;;;;;;;33.07;28.18;92647.63;5086917;28;20031;-67
2021/07/18 09:15:37;;;;;;;;;;;;;;;33.41;27.55;92645.38;5089698;28;20032;-65
2021/07/18 09:18:20;;;;;;;7.13;2.67;;;;;;;33.16;27.00;92643.31;5091562;28;19911;-66
2021/07/18 09:20:48;;;;;;;6.45;2.70;;;;;;;33.39;27.21;92639.66;5088287;28;20119;-67
2021/07/18 09:23:16;;;;;;;3.45;2.17;;;;;;;33.08;25.40;92638.31;5103367;28;20507;-68
2021/07/18 09:25:42;;;;;;;3.95;2.35;;;;;;;33.15;26.44;92644.75;5108881;28;20088;-67
2021/07/18 09:28:12;;;;;;;5.68;2.97;;;;;;;33.01;26.68;92628.31;5108899;28;20038;-66
2021/07/18 09:30:38;;;;;;;4.55;2.83;;;;;;;33.01;25.96;92647.66;5102826;28;20148;-68
2021/07/18 09:33:03;;;;;;;6.03;2.95;;;;;;;33.87;25.02;92635.16;5088451;28;20492;-66
2021/07/18 09:35:29;;;;;;;8.23;3.20;;;;;;;33.33;25.40;92638.97;5088262;28;20028;-62
2021/07/18 09:37:54;;;;;;;3.85;2.72;;;;;;;33.66;25.23;92640.25;5088366;28;20050;-63
2021/07/18 09:40:23;;;;;;;7.38;2.78;;;;;;;34.57;24.51;92646.16;5088019;28;20105;-66
2021/07/18 09:42:54;;;;;;;5.38;2.97;;;;;;;35.01;24.76;92640.03;5088323;28;20028;-66
2021/07/18 09:45:31;;;;;;;2.63;2.22;;;;;;;34.54;22.43;92630.41;5088225;28;20414;-64
2021/07/18 09:48:04;;;;;;;3.92;2.83;;;;;;;33.93;24.34;92632.25;5092590;28;20031;-63
2021/07/18 09:50:44;;;;;;;7.05;2.92;;;;;;;33.74;23.84;92636.66;5088980;28;20031;-63
2021/07/18 09:53:16;;;;;;;3.13;2.78;;;;;;;34.06;22.99;92637.22;5087325;28;20459;-64
2021/07/18 09:56:03;;;;;;;4.88;2.70;;;;;;;33.72;23.75;92645.97;5091951;28;20034;-60
2021/07/18 09:58:30;;;;;;;5.45;2.92;;;;;;;33.76;24.43;92636.63;5091152;28;20027;-64
2021/07/18 10:00:57;;;;;;;5.03;2.63;;;;;;;33.52;24.24;92632.47;5087729;28;20059;-65
2021/07/18 10:03:24;;;;;;;7.93;2.72;;;;;;;33.91;23.15;92630.13;5087997;28;20031;-65
2021/07/18 10:06:12;;;;;;;8.73;2.60;;;;;;;34.01;23.12;92635.78;5087775;28;20028;-61
2021/07/18 10:08:38;;;;;;;;;;;;;;;33.83;23.32;92623.72;5088699;28;20031;-62
2021/07/18 10:11:05;;;;;;;8.43;2.65;;;;;;;33.52;23.72;92631.75;5088226;28;19908;-63
2021/07/18 10:13:31;;;;;;;2.70;2.45;;;;;;;34.35;23.95;92635.53;5086404;28;20571;-64
2021/07/18 10:15:57;;;;;;;4.35;2.70;;;;;;;34.30;23.07;92624.84;5087419;28;20028;-64
2021/07/18 10:18:23;;;;;;;5.13;2.47;;;;;;;34.52;22.71;92621.13;5096331;28;20039;-64
2021/07/18 10:20:48;;;;;;;5.35;2.83;;;;;;;35.29;22.37;92635.44;5107572;28;20038;-66
2021/07/18 10:23:16;;;;;;;5.97;2.60;;;;;;;36.13;23.24;92625.03;5107976;28;20026;-64
2021/07/18 10:25:41;;;;;;;5.68;2.50;;;;;;;35.73;21.67;92632.78;5107890;28;20168;-62
2021/07/18 10:28:09;;;;;;;4.78;2.60;;;;;;;36.32;19.76;92624.03;5107653;28;20118;-62
2021/07/18 10:30:35;;;;;;;5.17;2.63;;;;;;;36.62;20.02;92622.88;5102912;28;20020;-66
2021/07/18 10:33:01;;;;;;;4.28;2.70;;;;;;;36.57;20.25;92638.03;5086590;28;20032;-63
2021/07/18 10:35:27;;;;;;;5.97;2.53;;;;;;;35.99;20.73;92628.84;5087364;28;20062;-62
2021/07/18 10:37:53;;;;;;;5.45;2.45;;;;;;;35.46;21.24;92634.50;5086240;28;20059;-63
2021/07/18 10:40:25;;;;;;;2.75;2.45;;;;;;;35.65;21.04;92637.88;5087059;28;20046;-59
2021/07/18 10:42:51;;;;;;;4.43;2.30;;;;;;;35.79;21.56;92632.69;5078584;28;20036;-62
2021/07/18 10:45:21;;;;;;;3.75;2.58;;;;;;;35.31;20.46;92626.78;5066935;28;20055;-64
2021/07/18 10:48:06;;;;;;;3.28;2.20;;;;;;;35.45;21.57;92635.97;5067214;28;20055;-67
2021/07/18 10:50:50;;;;;;;4.57;2.47;;;;;;;35.51;21.15;92632.31;5074667;28;20757;-61
2021/07/18 10:53:15;;;;;;;6.97;2.67;;;;;;;36.12;22.03;92632.97;5087730;28;20039;-63
2021/07/18 10:55:42;;;;;;;2.72;2.53;;;;;;;36.04;20.04;92633.06;5084688;28;20032;-65
2021/07/18 10:58:07;;;;;;;6.63;2.65;;;;;;;35.46;20.71;92642.41;5091439;28;20412;-62
2021/07/18 11:00:33;;;;;;;5.15;2.25;;;;;;;34.93;21.44;92628.59;5080295;28;20036;-61
2021/07/18 11:03:05;;;;;;;5.38;2.53;;;;;;;35.22;21.06;92643.38;5082820;28;20451;-62
2021/07/18 11:05:57;;;;;;;3.28;2.38;;;;;;;35.25;21.10;92641.94;5079060;28;20056;-65
2021/07/18 11:09:08;;;;;;;6.25;2.67;;;;;;;36.01;22.57;92628.09;5078076;28;20039;-64
2021/07/18 11:11:49;;;;;;;2.95;2.50;;;;;;;36.93;20.33;92643.91;5078141;28;20128;-66
2021/07/18 11:14:34;;;;;;;6.38;2.88;;;;;;;35.97;20.40;92634.63;5086802;28;20743;-64
2021/07/18 11:17:00;;;;;;;7.20;2.80;;;;;;;36.77;20.92;92644.19;5079905;28;20470;-63
2021/07/18 11:19:35;;;;;;;5.32;2.53;;;;;;;37.08;19.09;92653.00;5091312;28;20035;-65
2021/07/18 11:22:02;;;;;;;7.97;2.28;;;;;;;36.31;20.19;92644.91;5090825;28;20055;-64
2021/07/18 11:24:55;;;;;;;7.00;3.45;;;;;;;35.56;20.69;92645.19;5091229;28;20047;-65
2021/07/18 11:27:29;;;;;;;6.32;2.83;;;;;;;36.04;22.23;92650.31;5091271;28;20035;-63
2021/07/18 11:29:57;;;;;;;3.05;2.53;;;;;;;35.48;21.21;92648.84;5079014;28;20058;-66